Time;durP1;ratioP1;P1;durP2;ratioP2;P2;SDS_P1;SDS_P2;PMS_P1;PMS_P2;Temp;Humidity;BMP_temperature;BMP_pressure;BME280_temperature;BME280_humidity;BME280_pressure;Samples;Min_cycle;Max_cycle;Signal;HPM_P1;HPM_P2
2021/10/12 00:00:57;;;;;;;;;;;7.80;98.00;;;;;;5005285;28;19951;-70
2021/10/12 00:03:23;;;;;;;;;;;7.80;97.90;;;;;;5016861;28;20516;-70
2021/10/12 00:05:48;;;;;;;;;;;7.80;98.00;;;;;;5005879;28;20133;-70
2021/10/12 00:08:14;;;;;;;;;;;7.80;98.10;;;;;;5001781;28;19910;-69
2021/10/12 00:10:39;;;;;;;;;;;7.80;98.00;;;;;;4999049;28;19905;-70
2021/10/12 00:13:05;;;;;;;;;;;7.80;98.00;;;;;;4999084;28;20005;-69
2021/10/12 00:15:30;;;;;;;;;;;7.80;98.10;;;;;;5010427;28;19913;-70
2021/10/12 00:17:56;;;;;;;;;;;7.80;98.10;;;;;;5005419;28;19913;-69
2021/10/12 00:20:21;;;;;;;;;;;7.90;98.10;;;;;;5006281;28;19909;-70
2021/10/12 00:22:47;;;;;;;;;;;7.90;98.10;;;;;;5002932;28;19909;-70
2021/10/12 00:25:12;;;;;;;;;;;7.90;98.10;;;;;;5002966;28;19913;-70
2021/10/12 00:27:38;;;;;;;;;;;8.00;98.20;;;;;;4995090;28;19909;-70
2021/10/12 00:30:04;;;;;;;;;;;8.00;98.20;;;;;;5001765;28;19913;-70
2021/10/12 00:32:30;;;;;;;;;;;8.00;98.30;;;;;;4994935;28;19925;-70
2021/10/12 00:34:55;;;;;;;;;;;8.00;98.30;;;;;;5005312;28;19910;-70
2021/10/12 00:37:21;;;;;;;;;;;8.10;98.40;;;;;;4997702;28;19910;-71
2021/10/12 00:39:46;;;;;;;;;;;8.10;98.40;;;;;;5007201;28;19996;-70
2021/10/12 00:42:12;;;;;;;;;;;8.20;98.40;;;;;;5002834;28;19909;-70
2021/10/12 00:44:38;;;;;;;;;;;8.30;98.40;;;;;;5010433;28;19913;-70
2021/10/12 00:47:03;;;;;;;;;;;8.30;98.30;;;;;;4995286;28;19917;-70
2021/10/12 00:49:29;;;;;;;;;;;8.30;98.30;;;;;;4997646;28;20005;-70
2021/10/12 00:51:54;;;;;;;;;;;8.40;98.20;;;;;;5003374;28;19972;-70
2021/10/12 00:54:20;;;;;;;;;;;8.40;98.10;;;;;;5002194;28;20417;-70
2021/10/12 00:56:45;;;;;;;;;;;8.40;98.10;;;;;;4998290;28;19928;-70
2021/10/12 00:59:11;;;;;;;;;;;8.40;98.10;;;;;;4997831;28;20323;-70
2021/10/12 01:01:40;;;;;;;;;;;8.50;98.00;;;;;;4995470;28;19999;-70
2021/10/12 01:04:06;;;;;;;;;;;8.50;97.90;;;;;;4994725;28;20075;-70
2021/10/12 01:06:32;;;;;;;;;;;8.50;97.80;;;;;;5004556;28;19909;-70
2021/10/12 01:08:58;;;;;;;;;;;8.50;97.80;;;;;;4999404;28;19909;-70
2021/10/12 01:11:23;;;;;;;;;;;8.50;97.80;;;;;;4986934;28;19909;-70
2021/10/12 01:13:49;;;;;;;;;;;8.50;97.80;;;;;;5003166;28;19913;-71
2021/10/12 01:16:15;;;;;;;;;;;8.50;97.80;;;;;;5000727;28;19980;-70
2021/10/12 01:18:54;;;;;;;;;;;8.50;97.70;;;;;;5004880;28;19913;-70
2021/10/12 01:21:19;;;;;;;;;;;8.60;97.60;;;;;;5007356;28;20345;-70
2021/10/12 01:23:44;;;;;;;;;;;8.60;97.40;;;;;;4999099;28;20003;-68
2021/10/12 01:26:10;;;;;;;;;;;8.50;97.50;;;;;;4992901;28;19913;-67
2021/10/12 01:28:35;;;;;;;;;;;8.50;97.60;;;;;;5003693;28;19920;-68
2021/10/12 01:31:01;;;;;;;;;;;8.50;97.60;;;;;;5006718;28;19996;-68
2021/10/12 01:33:26;;;;;;;;;;;8.60;97.70;;;;;;4998518;28;19929;-68
2021/10/12 01:35:52;;;;;;;;;;;8.60;97.60;;;;;;4996193;28;19944;-68
2021/10/12 01:38:18;;;;;;;;;;;8.60;97.60;;;;;;5001324;28;19913;-68
2021/10/12 01:40:43;;;;;;;;;;;8.60;97.70;;;;;;5000096;28;19987;-68
2021/10/12 01:43:09;;;;;;;;;;;8.60;97.70;;;;;;5003389;28;19909;-68
2021/10/12 01:45:37;;;;;;;;;;;8.60;97.70;;;;;;5007156;28;19906;-68
2021/10/12 01:48:03;;;;;;;;;;;8.60;97.80;;;;;;5003080;28;20320;-68
2021/10/12 01:50:29;;;;;;;;;;;8.60;97.80;;;;;;5007229;28;19913;-68
2021/10/12 01:52:54;;;;;;;;;;;8.50;97.70;;;;;;5006537;28;20072;-68
2021/10/12 01:55:21;;;;;;;;;;;8.60;97.70;;;;;;5000056;28;19920;-68
2021/10/12 01:57:47;;;;;;;;;;;8.60;97.80;;;;;;4999821;28;19917;-68
2021/10/12 02:00:13;;;;;;;;;;;8.60;97.70;;;;;;5004643;28;20387;-68
2021/10/12 02:02:38;;;;;;;;;;;8.60;97.70;;;;;;5000148;28;20004;-68
2021/10/12 02:05:04;;;;;;;;;;;8.70;97.70;;;;;;5015236;28;20356;-68
2021/10/12 02:07:29;;;;;;;;;;;8.60;97.70;;;;;;5003631;28;20261;-68
2021/10/12 02:09:55;;;;;;;;;;;8.60;97.40;;;;;;4993146;28;20641;-68
2021/10/12 02:12:20;;;;;;;;;;;8.60;97.40;;;;;;4992680;28;20140;-69
2021/10/12 02:14:46;;;;;;;;;;;8.70;97.50;;;;;;4999032;28;19913;-69
2021/10/12 02:17:11;;;;;;;;;;;8.60;97.60;;;;;;5001356;28;19995;-68
2021/10/12 02:19:37;;;;;;;;;;;8.60;97.80;;;;;;5003114;28;19952;-68
2021/10/12 02:22:03;;;;;;;;;;;8.60;97.90;;;;;;5004747;28;19914;-69
2021/10/12 02:24:28;;;;;;;;;;;8.50;98.10;;;;;;5004526;28;19917;-68
2021/10/12 02:26:54;;;;;;;;;;;8.60;98.30;;;;;;5016307;28;19909;-68
2021/10/12 02:29:19;;;;;;;;;;;8.60;98.30;;;;;;5003106;28;20292;-69
2021/10/12 02:31:45;;;;;;;;;;;8.50;98.30;;;;;;4994856;28;20311;-68
2021/10/12 02:34:10;;;;;;;;;;;8.50;98.30;;;;;;5001764;28;19914;-69
2021/10/12 02:36:36;;;;;;;;;;;8.50;98.30;;;;;;5004223;28;19917;-69
2021/10/12 02:39:01;;;;;;;;;;;8.50;98.10;;;;;;4997007;28;19913;-68
2021/10/12 02:41:27;;;;;;;;;;;8.40;98.00;;;;;;5006340;28;20296;-69
2021/10/12 02:43:52;;;;;;;;;;;8.40;98.00;;;;;;5005210;28;20004;-67
2021/10/12 02:46:18;;;;;;;;;;;8.40;98.10;;;;;;5004929;28;19905;-68
2021/10/12 02:48:43;;;;;;;;;;;8.40;98.10;;;;;;5003597;28;19917;-69
2021/10/12 02:51:09;;;;;;;;;;;8.40;98.30;;;;;;5007392;28;19909;-68
2021/10/12 02:53:34;;;;;;;;;;;8.50;98.40;;;;;;4998192;28;19925;-68
2021/10/12 02:56:00;;;;;;;;;;;8.50;98.40;;;;;;5002027;28;20276;-68
2021/10/12 02:58:25;;;;;;;;;;;8.50;98.40;;;;;;4996852;28;19928;-68
2021/10/12 03:00:51;;;;;;;;;;;8.50;98.40;;;;;;5000638;28;19913;-68
2021/10/12 03:03:16;;;;;;;;;;;8.50;98.40;;;;;;5009574;28;19912;-68
2021/10/12 03:05:44;;;;;;;;;;;8.50;98.40;;;;;;5009544;28;19916;-68
2021/10/12 03:08:09;;;;;;;;;;;8.50;98.40;;;;;;4994934;28;20372;-68
2021/10/12 03:10:35;;;;;;;;;;;8.60;98.50;;;;;;5000960;28;19910;-68
2021/10/12 03:13:00;;;;;;;;;;;8.50;98.40;;;;;;5004746;28;19922;-66
2021/10/12 03:15:26;;;;;;;;;;;8.60;98.50;;;;;;4997473;28;20316;-67
2021/10/12 03:17:51;;;;;;;;;;;8.60;98.50;;;;;;5003465;28;20136;-67
2021/10/12 03:20:19;;;;;;;;;;;8.50;98.50;;;;;;5002984;28;19918;-67
2021/10/12 03:22:45;;;;;;;;;;;8.60;98.60;;;;;;5008992;28;19909;-66
2021/10/12 03:25:10;;;;;;;;;;;8.50;98.60;;;;;;5008433;28;20043;-67
2021/10/12 03:27:36;;;;;;;;;;;8.50;98.60;;;;;;5006715;28;19917;-67
2021/10/12 03:30:01;;;;;;;;;;;8.50;98.70;;;;;;5008285;28;20137;-67
2021/10/12 03:32:27;;;;;;;;;;;8.50;98.70;;;;;;5005762;28;19913;-67
2021/10/12 03:34:52;;;;;;;;;;;8.50;98.80;;;;;;4993573;28;19910;-67
2021/10/12 03:37:18;;;;;;;;;;;8.50;98.80;;;;;;4997915;28;19911;-67
2021/10/12 03:39:43;;;;;;;;;;;8.50;98.90;;;;;;5004212;28;19917;-66
2021/10/12 03:42:09;;;;;;;;;;;8.50;99.00;;;;;;4996952;28;19953;-67
2021/10/12 03:44:34;;;;;;;;;;;8.50;99.00;;;;;;4998167;28;20467;-67
2021/10/12 03:47:00;;;;;;;;;;;8.50;99.00;;;;;;5006483;28;19971;-67
2021/10/12 03:49:25;;;;;;;;;;;8.50;99.10;;;;;;5013937;28;19920;-67
2021/10/12 03:51:51;;;;;;;;;;;8.50;99.10;;;;;;5001388;28;20324;-67
2021/10/12 03:54:16;;;;;;;;;;;8.50;99.10;;;;;;4992309;28;19913;-66
2021/10/12 03:56:42;;;;;;;;;;;8.50;99.10;;;;;;4996530;28;20295;-67
2021/10/12 03:59:07;;;;;;;;;;;8.50;99.20;;;;;;5002446;28;19918;-67
2021/10/12 04:01:33;;;;;;;;;;;8.50;99.20;;;;;;5002092;28;19956;-66
2021/10/12 04:03:59;;;;;;;;;;;8.50;99.30;;;;;;5007459;28;19971;-67
2021/10/12 04:06:24;;;;;;;;;;;8.50;99.20;;;;;;4995499;28;20434;-67
2021/10/12 04:08:50;;;;;;;;;;;8.50;99.20;;;;;;5008026;28;19909;-67
2021/10/12 04:11:16;;;;;;;;;;;8.50;99.30;;;;;;5000500;28;20009;-67
2021/10/12 04:13:41;;;;;;;;;;;8.50;99.30;;;;;;5001492;28;19917;-68
2021/10/12 04:16:06;;;;;;;;;;;8.50;99.30;;;;;;5002020;28;20008;-67
2021/10/12 04:18:32;;;;;;;;;;;8.50;99.30;;;;;;5000087;28;20333;-67
2021/10/12 04:20:57;;;;;;;;;;;8.50;99.30;;;;;;5007877;28;19990;-65
2021/10/12 04:23:24;;;;;;;;;;;8.50;99.20;;;;;;5001659;28;20004;-65
2021/10/12 04:25:49;;;;;;;;;;;8.50;99.30;;;;;;4989873;28;19910;-65
2021/10/12 04:28:15;;;;;;;;;;;8.60;99.30;;;;;;5008872;28;20370;-65
2021/10/12 04:30:42;;;;;;;;;;;8.50;99.30;;;;;;4995341;28;19917;-65
2021/10/12 04:33:07;;;;;;;;;;;8.50;99.30;;;;;;5000629;28;19920;-65
2021/10/12 04:35:33;;;;;;;;;;;8.50;99.30;;;;;;5000021;28;19906;-65
2021/10/12 04:37:59;;;;;;;;;;;8.50;99.30;;;;;;4998482;28;19913;-64
2021/10/12 04:40:25;;;;;;;;;;;8.50;99.30;;;;;;5003381;28;20342;-64
2021/10/12 04:42:51;;;;;;;;;;;8.50;99.30;;;;;;4995334;28;19910;-64
2021/10/12 04:45:16;;;;;;;;;;;8.50;99.30;;;;;;4998983;28;19917;-63
2021/10/12 04:47:42;;;;;;;;;;;8.40;99.30;;;;;;5011931;28;19916;-63
2021/10/12 04:50:08;;;;;;;;;;;8.50;99.40;;;;;;5006769;28;19921;-64
2021/10/12 04:52:33;;;;;;;;;;;8.50;99.40;;;;;;4998149;28;19920;-64
2021/10/12 04:54:59;;;;;;;;;;;8.50;99.50;;;;;;4999222;28;19906;-64
2021/10/12 04:57:24;;;;;;;;;;;8.50;99.40;;;;;;4990361;28;20315;-64
2021/10/12 04:59:50;;;;;;;;;;;8.40;99.40;;;;;;4996714;28;19913;-64
2021/10/12 05:02:15;;;;;;;;;;;8.40;99.40;;;;;;4986166;28;19920;-65
2021/10/12 05:04:41;;;;;;;;;;;8.40;99.40;;;;;;5003228;28;20011;-67
2021/10/12 05:07:06;;;;;;;;;;;8.40;99.40;;;;;;5001540;28;20478;-65
2021/10/12 05:09:32;;;;;;;;;;;8.30;99.40;;;;;;5019071;28;19909;-64
2021/10/12 05:11:57;;;;;;;;;;;8.40;99.50;;;;;;4999240;28;19917;-65
2021/10/12 05:14:23;;;;;;;;;;;8.30;99.50;;;;;;5004816;28;19910;-64
2021/10/12 05:16:51;;;;;;;;;;;8.30;99.50;;;;;;4999477;28;20066;-65
2021/10/12 05:19:17;;;;;;;;;;;8.30;99.50;;;;;;5005120;28;20388;-65
2021/10/12 05:21:42;;;;;;;;;;;8.30;99.60;;;;;;5001264;28;19939;-64
2021/10/12 05:24:08;;;;;;;;;;;8.30;99.60;;;;;;5010741;28;19909;-66
2021/10/12 05:26:34;;;;;;;;;;;8.40;99.60;;;;;;5008624;28;20372;-65
2021/10/12 05:29:00;;;;;;;;;;;8.40;99.60;;;;;;4996680;28;20145;-66
2021/10/12 05:31:25;;;;;;;;;;;8.40;99.60;;;;;;5000288;28;20354;-65
2021/10/12 05:33:51;;;;;;;;;;;8.40;99.60;;;;;;4993300;28;19914;-65
2021/10/12 05:36:16;;;;;;;;;;;8.40;99.60;;;;;;4991073;28;19906;-66
2021/10/12 05:38:42;;;;;;;;;;;8.40;99.60;;;;;;4999466;28;19913;-66
2021/10/12 05:41:08;;;;;;;;;;;8.50;99.60;;;;;;5000177;28;19917;-66
2021/10/12 05:43:34;;;;;;;;;;;8.40;99.60;;;;;;4995377;28;20007;-65
2021/10/12 05:45:59;;;;;;;;;;;8.40;99.60;;;;;;5003387;28;19941;-66
2021/10/12 05:48:25;;;;;;;;;;;8.40;99.60;;;;;;5010596;28;19917;-65
2021/10/12 05:50:51;;;;;;;;;;;8.40;99.60;;;;;;5004038;28;20349;-65
2021/10/12 05:53:27;;;;;;;;;;;8.40;99.60;;;;;;5002680;28;19918;-66
2021/10/12 05:56:04;;;;;;;;;;;8.40;99.60;;;;;;5003475;28;20116;-65
2021/10/12 05:58:35;;;;;;;;;;;8.50;99.60;;;;;;4997106;28;20183;-66
2021/10/12 06:01:02;;;;;;;;;;;8.50;99.60;;;;;;5001158;28;19999;-65
2021/10/12 06:03:27;;;;;;;;;;;8.50;99.60;;;;;;4992148;28;19914;-64
2021/10/12 06:05:53;;;;;;;;;;;8.60;99.60;;;;;;4997114;28;19914;-65
2021/10/12 06:08:18;;;;;;;;;;;8.60;99.60;;;;;;4999597;28;19910;-66
2021/10/12 06:10:44;;;;;;;;;;;8.60;99.60;;;;;;4990883;28;19936;-64
2021/10/12 06:13:11;;;;;;;;;;;8.60;99.60;;;;;;5000775;28;19913;-65
2021/10/12 06:15:37;;;;;;;;;;;8.60;99.50;;;;;;5009213;28;19920;-66
2021/10/12 06:18:03;;;;;;;;;;;8.60;99.60;;;;;;5003034;28;20380;-66
2021/10/12 06:20:28;;;;;;;;;;;8.60;99.60;;;;;;5001922;28;20003;-65
2021/10/12 06:22:54;;;;;;;;;;;8.60;99.50;;;;;;4994569;28;19913;-66
2021/10/12 06:25:20;;;;;;;;;;;8.70;99.50;;;;;;4997657;28;19909;-64
2021/10/12 06:27:45;;;;;;;;;;;8.70;99.40;;;;;;4998302;28;20525;-65
2021/10/12 06:30:11;;;;;;;;;;;8.70;99.40;;;;;;4997725;28;19916;-66
2021/10/12 06:32:37;;;;;;;;;;;8.70;99.40;;;;;;5004625;28;20218;-66
2021/10/12 06:35:06;;;;;;;;;;;8.80;99.40;;;;;;5006142;28;19941;-65
2021/10/12 06:37:31;;;;;;;;;;;8.80;99.30;;;;;;5010281;28;19957;-66
2021/10/12 06:39:57;;;;;;;;;;;8.80;99.30;;;;;;5009974;28;20137;-66
2021/10/12 06:42:23;;;;;;;;;;;8.80;99.20;;;;;;4994177;28;20275;-66
2021/10/12 06:44:48;;;;;;;;;;;8.80;99.20;;;;;;5001135;28;19905;-66
2021/10/12 06:47:14;;;;;;;;;;;8.80;99.20;;;;;;5001404;28;19945;-66
2021/10/12 06:49:39;;;;;;;;;;;8.80;99.20;;;;;;5006928;28;19910;-66
2021/10/12 06:52:05;;;;;;;;;;;8.80;99.10;;;;;;4993995;28;19976;-65
2021/10/12 06:54:30;;;;;;;;;;;8.80;99.10;;;;;;5005207;28;19920;-64
2021/10/12 06:56:58;;;;;;;;;;;8.90;99.20;;;;;;5001754;28;20031;-66
2021/10/12 06:59:24;;;;;;;;;;;8.90;99.10;;;;;;5008652;28;19916;-65
2021/10/12 07:01:50;;;;;;;;;;;9.00;99.10;;;;;;4998679;28;20392;-66
2021/10/12 07:04:15;;;;;;;;;;;9.10;99.20;;;;;;5009183;28;19905;-65
2021/10/12 07:06:41;;;;;;;;;;;9.00;98.90;;;;;;4999696;28;19914;-66
2021/10/12 07:09:06;;;;;;;;;;;9.00;98.90;;;;;;5005421;28;19929;-65
2021/10/12 07:11:32;;;;;;;;;;;9.00;98.90;;;;;;5013487;28;20264;-66
2021/10/12 07:13:57;;;;;;;;;;;9.00;98.90;;;;;;4997657;28;19916;-66
2021/10/12 07:16:23;;;;;;;;;;;9.10;98.80;;;;;;4989771;28;20020;-65
2021/10/12 07:18:48;;;;;;;;;;;9.10;98.80;;;;;;5003636;28;19909;-65
2021/10/12 07:21:14;;;;;;;;;;;9.10;98.80;;;;;;4999291;28;19909;-66
2021/10/12 07:23:40;;;;;;;;;;;9.20;98.90;;;;;;5009093;28;19909;-66
2021/10/12 07:26:05;;;;;;;;;;;9.20;98.70;;;;;;5004014;28;19910;-65
2021/10/12 07:28:31;;;;;;;;;;;9.10;98.40;;;;;;5006373;28;19909;-66
2021/10/12 07:30:58;;;;;;;;;;;9.10;98.40;;;;;;4997859;28;19913;-66
2021/10/12 07:33:23;;;;;;;;;;;9.30;98.50;;;;;;4996172;28;20125;-66
2021/10/12 07:35:49;;;;;;;;;;;9.20;98.20;;;;;;4997303;28;20448;-66
2021/10/12 07:38:15;;;;;;;;;;;9.10;98.10;;;;;;5001465;28;20008;-66
2021/10/12 07:40:41;;;;;;;;;;;9.20;98.00;;;;;;5000974;28;19914;-66
2021/10/12 07:43:10;;;;;;;;;;;9.30;98.10;;;;;;5003750;28;19917;-66
2021/10/12 07:45:36;;;;;;;;;;;9.50;98.20;;;;;;4992941;28;19909;-67
2021/10/12 07:48:01;;;;;;;;;;;9.40;97.90;;;;;;4993215;28;19920;-66
2021/10/12 07:50:27;;;;;;;;;;;9.40;97.90;;;;;;4999731;28;20335;-66
2021/10/12 07:52:53;;;;;;;;;;;9.50;97.70;;;;;;4999433;28;20338;-66
2021/10/12 07:55:37;;;;;;;;;;;9.40;97.40;;;;;;5003400;28;19945;-66
2021/10/12 07:58:03;;;;;;;;;;;9.40;97.50;;;;;;5000199;28;19909;-66
2021/10/12 08:00:31;;;;;;;;;;;9.60;97.40;;;;;;4998628;28;19916;-65
2021/10/12 08:02:57;;;;;;;;;;;9.80;97.30;;;;;;4995426;28;19916;-66
2021/10/12 08:05:22;;;;;;;;;;;9.80;96.70;;;;;;4997170;28;19909;-66
2021/10/12 08:07:49;;;;;;;;;;;9.80;96.30;;;;;;5001333;28;19975;-66
2021/10/12 08:10:15;;;;;;;;;;;10.10;96.30;;;;;;5002156;28;20280;-66
2021/10/12 08:12:40;;;;;;;;;;;10.10;96.20;;;;;;4996464;28;20299;-66
2021/10/12 08:15:06;;;;;;;;;;;10.10;95.70;;;;;;4997656;28;19917;-66
2021/10/12 08:17:32;;;;;;;;;;;10.10;95.10;;;;;;4997811;28;19910;-66
2021/10/12 08:19:57;;;;;;;;;;;10.10;93.60;;;;;;5003056;28;19905;-67
2021/10/12 08:22:23;;;;;;;;;;;10.30;94.40;;;;;;5000623;28;20254;-66
2021/10/12 08:24:48;;;;;;;;;;;10.50;93.90;;;;;;4995993;28;19910;-66
2021/10/12 08:27:14;;;;;;;;;;;10.30;93.50;;;;;;4998888;28;19910;-66
2021/10/12 08:29:39;;;;;;;;;;;10.30;92.10;;;;;;5003395;28;19909;-67
2021/10/12 08:32:05;;;;;;;;;;;10.20;90.70;;;;;;5000679;28;20009;-66
2021/10/12 08:34:30;;;;;;;;;;;10.20;91.60;;;;;;4997480;28;19905;-66
2021/10/12 08:36:56;;;;;;;;;;;10.30;92.00;;;;;;5008694;28;19967;-67
2021/10/12 08:39:29;;;;;;;;;;;10.30;92.10;;;;;;5002126;28;20028;-66
2021/10/12 08:41:56;;;;;;;;;;;10.60;93.40;;;;;;4999356;28;19971;-66
2021/10/12 08:44:21;;;;;;;;;;;10.70;92.90;;;;;;5001984;28;20249;-66
2021/10/12 08:46:47;;;;;;;;;;;10.80;93.30;;;;;;4992633;28;19972;-67
2021/10/12 08:49:13;;;;;;;;;;;11.00;91.90;;;;;;5000364;28;19948;-66
2021/10/12 08:51:41;;;;;;;;;;;11.00;89.90;;;;;;5004181;28;20697;-67
2021/10/12 08:54:06;;;;;;;;;;;11.10;89.80;;;;;;4999891;28;19963;-67
2021/10/12 08:56:32;;;;;;;;;;;11.10;89.10;;;;;;4992371;28;19949;-67
2021/10/12 08:58:57;;;;;;;;;;;11.10;85.90;;;;;;4994545;28;19916;-66
2021/10/12 09:01:23;;;;;;;;;;;11.10;85.50;;;;;;5003193;28;19913;-66
2021/10/12 09:03:52;;;;;;;;;;;11.20;87.10;;;;;;4990800;28;19910;-66
2021/10/12 09:06:31;;;;;;;;;;;11.10;83.70;;;;;;4992108;28;19948;-66
2021/10/12 09:08:57;;;;;;;;;;;11.50;88.40;;;;;;4970464;28;19917;-66
2021/10/12 09:11:24;;;;;;;;;;;11.50;88.60;;;;;;5000267;28;20386;-66
2021/10/12 09:13:51;;;;;;;;;;;11.50;84.20;;;;;;4994421;28;19917;-66
2021/10/12 09:16:17;;;;;;;;;;;11.50;82.70;;;;;;5007376;28;19914;-66
2021/10/12 09:18:45;;;;;;;;;;;11.60;80.80;;;;;;4998393;28;19910;-67
2021/10/12 09:21:12;;;;;;;;;;;11.80;86.40;;;;;;4998110;28;19913;-66
2021/10/12 09:23:41;;;;;;;;;;;11.80;84.80;;;;;;5003516;28;19916;-66
2021/10/12 09:26:19;;;;;;;;;;;11.80;82.70;;;;;;5006270;28;19924;-66
2021/10/12 09:28:45;;;;;;;;;;;11.60;80.10;;;;;;4999608;28;19913;-66
2021/10/12 09:31:10;;;;;;;;;;;11.80;84.00;;;;;;4994928;28;19913;-66
2021/10/12 09:33:46;;;;;;;;;;;11.70;79.00;;;;;;4997389;28;19924;-67
2021/10/12 09:36:25;;;;;;;;;;;11.90;82.70;;;;;;4998033;28;19925;-66
2021/10/12 09:38:50;;;;;;;;;;;12.10;82.70;;;;;;5001505;28;19952;-66
2021/10/12 09:41:16;;;;;;;;;;;12.20;80.50;;;;;;4997685;28;19913;-66
2021/10/12 09:43:42;;;;;;;;;;;12.20;81.60;;;;;;5003069;28;20299;-66
2021/10/12 09:46:21;;;;;;;;;;;12.30;78.80;;;;;;4991951;28;19909;-66
2021/10/12 09:48:46;;;;;;;;;;;12.00;75.40;;;;;;4997282;28;19917;-66
2021/10/12 09:51:13;;;;;;;;;;;12.10;77.50;;;;;;5002589;28;19967;-66
2021/10/12 09:53:43;;;;;;;;;;;11.90;76.00;;;;;;5005388;28;20403;-66
2021/10/12 09:56:09;;;;;;;;;;;12.10;76.60;;;;;;4992817;28;19909;-66
2021/10/12 09:58:35;;;;;;;;;;;12.10;76.40;;;;;;4997830;28;19932;-66
2021/10/12 10:01:05;;;;;;;;;;;12.30;75.30;;;;;;5001714;28;20288;-66
2021/10/12 10:03:31;;;;;;;;;;;12.40;78.30;;;;;;5005311;28;19916;-66
2021/10/12 10:05:59;;;;;;;;;;;12.50;73.80;;;;;;4996790;28;19913;-66
2021/10/12 10:08:25;;;;;;;;;;;12.90;74.80;;;;;;5000028;28;19932;-66
2021/10/12 10:10:51;;;;;;;;;;;12.40;74.20;;;;;;4998783;28;20196;-66
2021/10/12 10:13:18;;;;;;;;;;;11.70;73.50;;;;;;5006914;28;20253;-66
2021/10/12 10:15:44;;;;;;;;;;;12.00;75.70;;;;;;5001563;28;20008;-66
2021/10/12 10:18:10;;;;;;;;;;;12.60;78.00;;;;;;5000657;28;19910;-66
2021/10/12 10:20:36;;;;;;;;;;;12.80;73.80;;;;;;5000447;28;19917;-66
2021/10/12 10:23:02;;;;;;;;;;;12.80;74.40;;;;;;5002754;28;19979;-66
2021/10/12 10:25:35;;;;;;;;;;;13.10;75.10;;;;;;4999193;28;19953;-66
2021/10/12 10:28:15;;;;;;;;;;;13.40;74.90;;;;;;4994601;28;19909;-66
2021/10/12 10:31:00;;;;;;;;;;;13.00;73.70;;;;;;4998614;28;19922;-66
2021/10/12 10:33:26;;;;;;;;;;;13.00;72.30;;;;;;5002031;28;19917;-66
2021/10/12 10:35:58;;;;;;;;;;;13.00;72.90;;;;;;5004090;28;19917;-66
2021/10/12 10:38:26;;;;;;;;;;;13.10;72.60;;;;;;4998456;28;19921;-66
2021/10/12 10:41:03;;;;;;;;;;;13.00;72.10;;;;;;5000304;28;19909;-66
2021/10/12 10:43:47;;;;;;;;;;;13.00;72.20;;;;;;5004737;28;19913;-66
2021/10/12 10:46:31;;;;;;;;;;;12.80;70.50;;;;;;4999588;28;19937;-66
2021/10/12 10:49:09;;;;;;;;;;;13.00;67.30;;;;;;5001898;28;20056;-66
2021/10/12 10:51:50;;;;;;;;;;;13.20;72.90;;;;;;5002447;28;19945;-66
2021/10/12 10:54:34;;;;;;;;;;;13.50;69.90;;;;;;4997356;28;19940;-66
2021/10/12 10:57:09;;;;;;;;;;;13.50;68.60;;;;;;4990910;28;19909;-66
2021/10/12 10:59:35;;;;;;;;;;;13.30;70.30;;;;;;5007525;28;20025;-67
2021/10/12 11:02:00;;;;;;;;;;;13.80;69.50;;;;;;4997434;28;19916;-66
2021/10/12 11:04:43;;;;;;;;;;;13.30;71.00;;;;;;5000279;28;20436;-66
2021/10/12 11:07:09;;;;;;;;;;;12.80;69.70;;;;;;5004995;28;19913;-67
2021/10/12 11:09:44;;;;;;;;;;;12.80;72.50;;;;;;4997833;28;20498;-65
2021/10/12 11:12:18;;;;;;;;;;;12.50;72.60;;;;;;4998367;28;20361;-65
2021/10/12 11:14:44;;;;;;;;;;;13.00;72.70;;;;;;5007411;28;19913;-65
2021/10/12 11:17:10;;;;;;;;;;;13.10;68.60;;;;;;5001158;28;19915;-65
2021/10/12 11:19:54;;;;;;;;;;;13.30;67.80;;;;;;5002934;28;20107;-65
2021/10/12 11:22:20;;;;;;;;;;;13.80;66.70;;;;;;5000243;28;19910;-65
2021/10/12 11:24:45;;;;;;;;;;;13.80;67.00;;;;;;5010718;28;19909;-65
2021/10/12 11:27:11;;;;;;;;;;;13.60;63.10;;;;;;5010886;28;20020;-64
2021/10/12 11:29:36;;;;;;;;;;;13.60;64.50;;;;;;5002423;28;19951;-65
2021/10/12 11:32:02;;;;;;;;;;;13.90;63.90;;;;;;5000751;28;20287;-64
2021/10/12 11:34:28;;;;;;;;;;;13.70;64.60;;;;;;5007150;28;19920;-64
2021/10/12 11:37:05;;;;;;;;;;;13.60;65.30;;;;;;5002752;28;19914;-65
2021/10/12 11:39:30;;;;;;;;;;;13.70;66.10;;;;;;4999396;28;19913;-65
2021/10/12 11:41:59;;;;;;;;;;;13.90;63.70;;;;;;5004851;28;20441;-65
2021/10/12 11:44:25;;;;;;;;;;;14.00;64.90;;;;;;5000471;28;19981;-64
2021/10/12 11:46:52;;;;;;;;;;;14.30;64.80;;;;;;4999598;28;19917;-64
2021/10/12 11:49:19;;;;;;;;;;;14.40;62.90;;;;;;5002626;28;20000;-65
2021/10/12 11:51:45;;;;;;;;;;;14.80;61.40;;;;;;5004676;28;19920;-64
2021/10/12 11:54:11;;;;;;;;;;;14.80;58.90;;;;;;5006608;28;19909;-63
2021/10/12 11:56:37;;;;;;;;;;;14.40;60.80;;;;;;5008121;28;20230;-65
2021/10/12 11:59:04;;;;;;;;;;;13.60;62.50;;;;;;5006070;28;19925;-65
2021/10/12 12:01:37;;;;;;;;;;;13.40;65.60;;;;;;5002907;28;19909;-65
2021/10/12 12:04:04;;;;;;;;;;;14.00;63.70;;;;;;5002865;28;19913;-64
2021/10/12 12:06:34;;;;;;;;;;;14.40;61.60;;;;;;5005755;28;20383;-64
2021/10/12 12:09:01;;;;;;;;;;;14.70;62.20;;;;;;5001896;28;19920;-65
2021/10/12 12:11:28;;;;;;;;;;;15.00;61.90;;;;;;4990743;28;19913;-64
2021/10/12 12:13:54;;;;;;;;;;;14.60;61.70;;;;;;5002813;28;19944;-64
2021/10/12 12:16:21;;;;;;;;;;;13.30;63.30;;;;;;4994465;28;19910;-64
2021/10/12 12:18:47;;;;;;;;;;;13.30;65.20;;;;;;5005441;28;19909;-64
2021/10/12 12:21:13;;;;;;;;;;;12.80;63.90;;;;;;4996604;28;19909;-64
2021/10/12 12:23:41;;;;;;;;;;;12.70;66.20;;;;;;4996821;28;19913;-64
2021/10/12 12:26:11;;;;;;;;;;;12.50;67.40;;;;;;5007277;28;19917;-62
2021/10/12 12:28:37;;;;;;;;;;;13.10;66.50;;;;;;5014298;28;20137;-64
2021/10/12 12:31:21;;;;;;;;;;;13.90;63.30;;;;;;4998680;28;19909;-65
2021/10/12 12:33:48;;;;;;;;;;;14.50;59.60;;;;;;5006076;28;19913;-64
2021/10/12 12:36:14;;;;;;;;;;;14.90;58.80;;;;;;4998970;28;19906;-65
2021/10/12 12:38:41;;;;;;;;;;;15.10;58.60;;;;;;5010458;28;20372;-65
2021/10/12 12:41:21;;;;;;;;;;;14.20;60.80;;;;;;5014245;28;20395;-65
2021/10/12 12:43:51;;;;;;;;;;;13.80;61.80;;;;;;5007348;28;19910;-62
2021/10/12 12:46:17;;;;;;;;;;;13.10;64.60;;;;;;5001581;28;19905;-62
2021/10/12 12:48:46;;;;;;;;;;;12.90;65.20;;;;;;4996577;28;19909;-63
2021/10/12 12:51:12;;;;;;;;;;;12.70;67.70;;;;;;5012646;28;19917;-62
2021/10/12 12:53:40;;;;;;;;;;;12.60;69.90;;;;;;4995562;28;19967;-63
2021/10/12 12:56:07;;;;;;;;;;;12.50;68.70;;;;;;5002144;28;19909;-64
2021/10/12 12:58:37;;;;;;;;;;;12.30;70.70;;;;;;5003377;28;19910;-64
2021/10/12 13:01:03;;;;;;;;;;;12.10;71.00;;;;;;5004562;28;20262;-65
2021/10/12 13:03:28;;;;;;;;;;;12.80;66.90;;;;;;4996962;28;19978;-63
2021/10/12 13:05:54;;;;;;;;;;;13.60;65.40;;;;;;4997409;28;19909;-64
2021/10/12 13:08:19;;;;;;;;;;;14.20;62.90;;;;;;4993091;28;20377;-65
2021/10/12 13:10:46;;;;;;;;;;;15.00;61.80;;;;;;4987673;28;19962;-70
2021/10/12 13:13:11;;;;;;;;;;;15.80;62.10;;;;;;5004129;28;20318;-65
2021/10/12 13:15:37;;;;;;;;;;;16.30;57.90;;;;;;5006615;28;19985;-66
2021/10/12 13:18:02;;;;;;;;;;;16.20;59.90;;;;;;5002544;28;20291;-67
2021/10/12 13:20:28;;;;;;;;;;;16.00;57.50;;;;;;4999003;28;19920;-67
2021/10/12 13:22:53;;;;;;;;;;;15.90;57.20;;;;;;5000282;28;20044;-66
2021/10/12 13:25:19;;;;;;;;;;;16.50;57.20;;;;;;4996817;28;20368;-67
2021/10/12 13:27:45;;;;;;;;;;;16.40;55.20;;;;;;5005013;28;19909;-67
2021/10/12 13:30:13;;;;;;;;;;;16.20;56.90;;;;;;5003187;28;19913;-65
2021/10/12 13:32:38;;;;;;;;;;;15.20;58.20;;;;;;5008004;28;19914;-67
2021/10/12 13:35:04;;;;;;;;;;;13.90;64.90;;;;;;4992430;28;19905;-66
2021/10/12 13:37:30;;;;;;;;;;;11.80;74.50;;;;;;4993453;28;20567;-66
2021/10/12 13:39:55;;;;;;;;;;;11.10;80.70;;;;;;5018417;28;19910;-67
2021/10/12 13:42:21;;;;;;;;;;;11.00;85.00;;;;;;5011603;28;20294;-65
2021/10/12 13:44:49;;;;;;;;;;;10.90;83.00;;;;;;4996069;28;19914;-66
2021/10/12 13:47:15;;;;;;;;;;;11.10;85.60;;;;;;5008183;28;20292;-66
2021/10/12 13:49:42;;;;;;;;;;;11.80;85.10;;;;;;5013011;28;19916;-66
2021/10/12 13:52:08;;;;;;;;;;;11.80;84.60;;;;;;5001041;28;20312;-66
2021/10/12 13:54:34;;;;;;;;;;;12.30;84.70;;;;;;5005091;28;19914;-66
2021/10/12 13:57:00;;;;;;;;;;;12.60;83.40;;;;;;5002582;28;19924;-66
2021/10/12 13:59:25;;;;;;;;;;;13.40;83.20;;;;;;5016708;28;20383;-66
2021/10/12 14:01:51;;;;;;;;;;;14.40;78.80;;;;;;5014443;28;20352;-66
2021/10/12 14:04:17;;;;;;;;;;;14.80;76.90;;;;;;5006511;28;19914;-67
2021/10/12 14:06:42;;;;;;;;;;;15.40;68.70;;;;;;5015772;28;19939;-67
2021/10/12 14:09:08;;;;;;;;;;;15.40;72.60;;;;;;5004259;28;20352;-66
2021/10/12 14:11:34;;;;;;;;;;;15.40;64.00;;;;;;5009923;28;20038;-66
2021/10/12 14:14:00;;;;;;;;;;;15.70;67.50;;;;;;5012738;28;20047;-67
2021/10/12 14:16:25;;;;;;;;;;;14.90;68.00;;;;;;5014689;28;19917;-65
2021/10/12 14:18:51;;;;;;;;;;;14.70;71.50;;;;;;5006503;28;19959;-67
2021/10/12 14:21:18;;;;;;;;;;;14.70;72.70;;;;;;5009813;28;19917;-66